createdAt,value
2019-01-25T00:01:06.539Z,44.60
2019-01-25T00:03:35.882Z,42.03
2019-01-25T00:06:06.420Z,43.13
2019-01-25T00:08:35.698Z,44.00
2019-01-25T00:11:05.098Z,43.43
2019-01-25T00:13:34.476Z,43.47
2019-01-25T00:16:04.682Z,47.37
2019-01-25T00:18:33.886Z,43.63
2019-01-25T00:21:03.166Z,44.73
2019-01-25T00:23:32.426Z,43.30
2019-01-25T00:26:01.713Z,43.80
2019-01-25T00:28:30.830Z,44.20
2019-01-25T00:30:59.968Z,43.47
2019-01-25T00:33:29.114Z,44.53
2019-01-25T00:35:58.242Z,44.37
2019-01-25T00:38:27.462Z,42.93
2019-01-25T00:40:56.608Z,43.83
2019-01-25T00:43:25.710Z,42.80
2019-01-25T00:45:54.894Z,46.20
2019-01-25T00:48:24.066Z,42.33
2019-01-25T00:50:53.912Z,45.10
2019-01-25T00:53:23.023Z,43.00
2019-01-25T00:55:52.184Z,42.63
2019-01-25T00:58:21.318Z,41.83
2019-01-25T01:00:50.531Z,43.33
2019-01-25T01:03:21.150Z,43.30
2019-01-25T01:05:50.364Z,42.93
2019-01-25T01:08:19.508Z,42.60
2019-01-25T01:10:48.638Z,43.97
2019-01-25T01:13:17.858Z,46.37
2019-01-25T01:15:47.050Z,44.07
2019-01-25T01:18:16.235Z,44.93
2019-01-25T01:20:45.453Z,41.93
2019-01-25T01:23:14.839Z,41.50
2019-01-25T01:25:44.112Z,45.00
2019-01-25T01:28:13.456Z,40.77
2019-01-25T01:30:42.976Z,42.47
2019-01-25T01:33:12.315Z,43.63
2019-01-25T01:35:41.560Z,43.33
2019-01-25T01:38:10.856Z,41.20
2019-01-25T01:40:40.203Z,42.90
2019-01-25T01:43:09.388Z,42.60
2019-01-25T01:45:38.610Z,41.57
2019-01-25T01:48:07.774Z,44.50
2019-01-25T01:50:37.044Z,41.60
2019-01-25T01:53:06.206Z,43.17
2019-01-25T01:55:35.379Z,41.20
2019-01-25T01:58:04.762Z,42.23
2019-01-25T02:00:34.002Z,42.10
2019-01-25T02:03:03.310Z,42.37
2019-01-25T02:05:32.462Z,40.67
2019-01-25T02:08:01.653Z,40.23
2019-01-25T02:10:30.966Z,45.10
2019-01-25T02:13:00.188Z,42.37
2019-01-25T02:15:29.348Z,41.37
2019-01-25T02:17:58.594Z,41.97
2019-01-25T02:20:29.671Z,42.00
2019-01-25T02:22:58.982Z,42.23
2019-01-25T02:25:28.326Z,42.93
2019-01-25T02:27:57.521Z,40.87
2019-01-25T02:30:27.566Z,41.67
2019-01-25T02:32:56.962Z,42.70
2019-01-25T02:35:26.257Z,42.77
2019-01-25T02:37:55.678Z,43.90
2019-01-25T02:40:25.954Z,44.90
2019-01-25T02:42:55.394Z,43.27
2019-01-25T02:45:25.923Z,45.20
2019-01-25T02:47:55.177Z,43.03
2019-01-25T02:50:24.451Z,43.57
2019-01-25T02:52:53.892Z,44.40
2019-01-25T02:55:23.180Z,42.43
2019-01-25T02:57:52.472Z,45.57
2019-01-25T03:00:25.719Z,45.23
2019-01-25T03:02:55.762Z,43.80
2019-01-25T03:05:26.288Z,44.90
2019-01-25T03:07:55.502Z,45.60
2019-01-25T03:10:28.847Z,45.10
2019-01-25T03:12:56.017Z,43.63
2019-01-25T03:15:26.765Z,44.83
2019-01-25T03:17:55.997Z,42.87
2019-01-25T03:20:26.083Z,44.73
2019-01-25T03:22:55.292Z,43.10
2019-01-25T03:25:28.165Z,43.90
2019-01-25T03:27:57.327Z,43.40
2019-01-25T03:30:27.555Z,45.73
2019-01-25T03:32:56.885Z,45.10
2019-01-25T03:35:27.144Z,44.73
2019-01-25T03:37:56.666Z,43.87
2019-01-25T03:40:27.664Z,43.67
2019-01-25T03:42:56.932Z,44.57
2019-01-25T03:45:26.835Z,43.77
2019-01-25T03:47:56.048Z,43.57
2019-01-25T03:50:27.891Z,44.37
2019-01-25T03:52:57.331Z,44.07
2019-01-25T03:55:27.362Z,45.07
2019-01-25T03:57:56.594Z,45.23
2019-01-25T04:00:29.929Z,43.63
2019-01-25T04:02:59.504Z,42.40
2019-01-25T04:05:28.679Z,42.77
2019-01-25T04:07:57.827Z,39.90
2019-01-25T04:10:28.840Z,42.77
2019-01-25T04:12:58.353Z,42.87
2019-01-25T04:15:30.105Z,41.90
2019-01-25T04:17:59.270Z,42.93
2019-01-25T04:20:28.480Z,43.57
2019-01-25T04:22:57.624Z,47.20
2019-01-25T04:25:26.879Z,44.30
2019-01-25T04:27:56.111Z,41.60
2019-01-25T04:30:27.335Z,42.50
2019-01-25T04:32:56.509Z,41.33
2019-01-25T04:35:25.966Z,42.37
2019-01-25T04:37:55.245Z,44.53
2019-01-25T04:40:24.445Z,42.13
2019-01-25T04:42:54.507Z,44.63
2019-01-25T04:45:23.705Z,45.30
2019-01-25T04:47:52.880Z,42.20
2019-01-25T04:50:24.094Z,42.37
2019-01-25T04:52:53.804Z,44.77
2019-01-25T04:55:28.253Z,41.80
2019-01-25T04:58:15.182Z,42.07
2019-01-25T05:00:44.568Z,41.63
2019-01-25T05:03:14.106Z,44.23
2019-01-25T05:05:43.526Z,43.30
2019-01-25T05:08:20.596Z,42.73
2019-01-25T05:10:49.976Z,44.20
2019-01-25T05:13:19.289Z,44.77
2019-01-25T05:15:48.622Z,42.33
2019-01-25T05:18:18.144Z,43.97
2019-01-25T05:20:47.392Z,43.27
2019-01-25T05:23:16.570Z,42.60
2019-01-25T05:25:45.806Z,45.97
2019-01-25T05:28:16.998Z,43.13
2019-01-25T05:31:00.465Z,42.27
2019-01-25T05:33:29.790Z,44.67
2019-01-25T05:35:59.023Z,44.90
2019-01-25T05:38:28.324Z,41.97
2019-01-25T05:40:57.497Z,42.87
2019-01-25T05:43:26.861Z,43.60
2019-01-25T05:45:56.114Z,46.53
2019-01-25T05:48:31.781Z,43.17
2019-01-25T05:51:02.762Z,44.37
2019-01-25T05:53:31.945Z,46.33
2019-01-25T05:56:01.246Z,45.17
2019-01-25T05:58:30.486Z,43.00
2019-01-25T06:00:59.834Z,45.73
2019-01-25T06:03:29.144Z,44.50
2019-01-25T06:06:04.311Z,47.20
2019-01-25T06:08:34.642Z,44.33
2019-01-25T06:11:07.845Z,45.63
2019-01-25T06:13:37.211Z,47.17
2019-01-25T06:16:06.408Z,46.10
2019-01-25T06:18:35.652Z,45.80
2019-01-25T06:21:05.278Z,47.17
2019-01-25T06:23:34.565Z,42.90
2019-01-25T06:26:04.203Z,43.60
2019-01-25T06:28:33.477Z,45.47
2019-01-25T06:31:02.790Z,44.97
2019-01-25T06:33:32.077Z,44.13
2019-01-25T06:36:01.389Z,45.07
2019-01-25T06:38:31.789Z,45.93
2019-01-25T06:41:01.086Z,45.03
2019-01-25T06:43:30.284Z,44.73
2019-01-25T06:45:59.571Z,47.73
2019-01-25T06:48:28.797Z,42.60
2019-01-25T06:50:58.013Z,42.80
2019-01-25T06:53:27.191Z,43.73
2019-01-25T06:55:56.424Z,43.13
2019-01-25T06:59:02.803Z,43.90
2019-01-25T07:01:37.456Z,42.40
2019-01-25T07:04:06.757Z,39.87
2019-01-25T07:06:35.954Z,39.17
2019-01-25T07:09:09.917Z,41.90
2019-01-25T07:11:42.317Z,41.13
2019-01-25T07:14:10.693Z,39.50
2019-01-25T07:16:40.023Z,39.57
2019-01-25T07:19:09.328Z,41.83
2019-01-25T07:21:38.607Z,38.27
2019-01-25T07:24:07.999Z,40.40
2019-01-25T07:26:37.268Z,37.77
2019-01-25T07:29:06.526Z,39.03
2019-01-25T07:31:35.806Z,41.60
2019-01-25T07:34:05.465Z,39.50
2019-01-25T07:36:34.679Z,39.30
2019-01-25T07:39:18.674Z,38.50
2019-01-25T07:41:47.963Z,38.73
2019-01-25T07:44:17.221Z,41.70
2019-01-25T07:46:46.547Z,36.57
2019-01-25T07:49:15.842Z,39.73
2019-01-25T07:51:45.116Z,38.97
2019-01-25T07:54:14.329Z,39.37
2019-01-25T07:56:43.754Z,38.93
2019-01-25T07:59:13.034Z,39.40
2019-01-25T08:01:42.545Z,40.20
2019-01-25T08:04:11.941Z,37.97
2019-01-25T08:06:41.239Z,37.63
2019-01-25T08:09:10.984Z,34.63
2019-01-25T08:11:40.281Z,36.97
2019-01-25T08:14:09.576Z,36.73
2019-01-25T08:16:38.874Z,37.10
2019-01-25T08:19:08.165Z,36.63
2019-01-25T08:21:37.400Z,36.47
2019-01-25T08:24:06.633Z,35.53
2019-01-25T08:26:35.774Z,35.60
2019-01-25T08:29:05.038Z,35.70
2019-01-25T08:31:34.379Z,36.20
2019-01-25T08:34:03.647Z,34.87
2019-01-25T08:36:32.816Z,34.63
2019-01-25T08:39:02.188Z,33.83
2019-01-25T08:41:31.523Z,34.73
2019-01-25T08:44:00.991Z,35.50
2019-01-25T08:46:30.360Z,34.70
2019-01-25T08:48:59.639Z,35.20
2019-01-25T08:51:29.031Z,34.73
2019-01-25T08:53:58.190Z,34.60
2019-01-25T08:56:27.360Z,33.97
2019-01-25T08:58:56.620Z,34.43
2019-01-25T09:01:25.940Z,33.57
2019-01-25T09:03:55.188Z,32.77
2019-01-25T09:06:24.459Z,33.67
2019-01-25T09:08:53.752Z,33.67
2019-01-25T09:11:23.428Z,33.53
2019-01-25T09:13:52.725Z,33.13
2019-01-25T09:16:21.958Z,33.93
2019-01-25T09:18:51.221Z,34.77
2019-01-25T09:21:20.432Z,34.00
2019-01-25T09:23:49.735Z,32.07
2019-01-25T09:26:18.931Z,32.20
2019-01-25T09:28:51.148Z,33.57
2019-01-25T09:31:20.309Z,32.67
2019-01-25T09:33:49.543Z,31.37
2019-01-25T09:36:18.831Z,32.93
2019-01-25T09:38:48.021Z,32.53
2019-01-25T09:41:17.259Z,32.07
2019-01-25T09:43:46.611Z,33.10
2019-01-25T09:46:15.911Z,31.53
2019-01-25T09:48:45.191Z,32.53
2019-01-25T09:51:14.379Z,32.40
2019-01-25T09:53:43.625Z,31.70
2019-01-25T09:56:12.982Z,32.23
2019-01-25T09:58:46.407Z,32.27
2019-01-25T10:01:15.706Z,32.30
2019-01-25T10:03:44.946Z,32.73
2019-01-25T10:06:14.143Z,33.37
2019-01-25T10:08:43.405Z,33.27
2019-01-25T10:11:12.651Z,32.33
2019-01-25T10:13:41.967Z,34.10
2019-01-25T10:16:11.221Z,30.23
2019-01-25T10:18:40.572Z,32.03
2019-01-25T10:21:09.887Z,33.40
2019-01-25T10:23:39.359Z,32.50
2019-01-25T10:26:08.719Z,32.70
2019-01-25T10:28:37.971Z,31.60
2019-01-25T10:31:07.212Z,32.17
2019-01-25T10:33:36.508Z,33.73
2019-01-25T10:36:06.007Z,33.43
2019-01-25T10:38:35.315Z,32.43
2019-01-25T10:41:04.710Z,33.47
2019-01-25T10:43:33.975Z,32.43
2019-01-25T10:46:03.257Z,30.10
2019-01-25T10:48:32.571Z,30.03
2019-01-25T10:51:01.830Z,27.03
2019-01-25T10:53:31.111Z,27.17
2019-01-25T10:56:00.413Z,29.13
2019-01-25T10:58:29.717Z,30.20
2019-01-25T11:00:59.859Z,28.83
2019-01-25T11:03:29.109Z,28.20
2019-01-25T11:05:58.291Z,26.53
2019-01-25T11:08:27.547Z,27.97
2019-01-25T11:10:56.901Z,25.40
2019-01-25T11:13:26.107Z,27.17
2019-01-25T11:15:55.327Z,28.40
2019-01-25T11:18:24.670Z,29.13
2019-01-25T11:20:53.943Z,26.37
2019-01-25T11:23:23.162Z,28.83
2019-01-25T11:25:52.434Z,28.13
2019-01-25T11:28:21.687Z,27.70
2019-01-25T11:30:50.964Z,26.63
2019-01-25T11:33:20.233Z,26.33
2019-01-25T11:35:49.592Z,26.63
2019-01-25T11:38:18.814Z,29.97
2019-01-25T11:40:48.039Z,25.80
2019-01-25T11:43:17.187Z,25.50
2019-01-25T11:45:46.384Z,26.10
2019-01-25T11:48:15.893Z,26.80
2019-01-25T11:50:45.094Z,28.33
2019-01-25T11:53:14.305Z,26.63
2019-01-25T11:55:43.692Z,27.90
2019-01-25T11:58:13.009Z,25.33
2019-01-25T12:00:45.801Z,25.67
2019-01-25T12:03:14.945Z,25.83
2019-01-25T12:05:44.131Z,28.77
2019-01-25T12:08:14.011Z,29.17
2019-01-25T12:10:43.180Z,29.07
2019-01-25T12:13:16.169Z,28.23
2019-01-25T12:15:43.298Z,27.57
2019-01-25T12:18:12.471Z,29.97
2019-01-25T12:20:41.667Z,27.03
2019-01-25T12:23:12.052Z,30.60
2019-01-25T12:25:41.477Z,29.63
2019-01-25T12:28:10.731Z,29.03
2019-01-25T12:30:40.562Z,31.10
2019-01-25T12:33:10.641Z,29.50
2019-01-25T12:35:42.252Z,30.23
2019-01-25T12:38:11.404Z,31.07
2019-01-25T12:40:42.341Z,30.73
2019-01-25T12:43:11.571Z,29.00
2019-01-25T12:45:40.838Z,29.87
2019-01-25T12:48:10.243Z,29.70
2019-01-25T12:51:01.088Z,29.50
2019-01-25T12:53:30.822Z,28.60
2019-01-25T12:56:00.174Z,28.27
2019-01-25T12:58:30.914Z,28.83
2019-01-25T13:01:02.218Z,28.17
2019-01-25T13:03:31.485Z,28.97
2019-01-25T13:06:00.930Z,27.53
2019-01-25T13:08:30.176Z,28.93
2019-01-25T13:10:59.441Z,27.80
2019-01-25T13:13:31.764Z,29.43
2019-01-25T13:15:59.578Z,34.10
2019-01-25T13:18:28.847Z,29.60
2019-01-25T13:20:58.036Z,30.83
2019-01-25T13:23:27.279Z,29.20
2019-01-25T13:25:56.565Z,30.27
2019-01-25T13:28:25.841Z,30.00
2019-01-25T13:30:55.086Z,29.53
2019-01-25T13:33:24.514Z,27.97
2019-01-25T13:35:53.925Z,27.87
2019-01-25T13:38:23.200Z,25.73
2019-01-25T13:40:52.542Z,26.20
2019-01-25T13:43:21.786Z,26.93
2019-01-25T13:45:51.086Z,26.50
2019-01-25T13:48:20.281Z,26.60
2019-01-25T13:50:49.553Z,26.47
2019-01-25T13:53:18.842Z,27.00
2019-01-25T13:55:48.115Z,27.37
2019-01-25T13:58:17.286Z,27.30
2019-01-25T14:00:46.484Z,28.60
2019-01-25T14:03:15.662Z,28.27
2019-01-25T14:05:44.947Z,25.87
2019-01-25T14:08:14.261Z,27.27
2019-01-25T14:10:43.592Z,26.13
2019-01-25T14:13:12.859Z,26.37
2019-01-25T14:15:42.114Z,26.07
2019-01-25T14:18:11.442Z,25.87
2019-01-25T14:20:40.702Z,25.37
2019-01-25T14:23:09.878Z,23.50
2019-01-25T14:25:39.208Z,24.13
2019-01-25T14:28:08.622Z,24.30
2019-01-25T14:30:42.566Z,23.70
2019-01-25T14:33:11.879Z,24.73
2019-01-25T14:35:41.635Z,23.80
2019-01-25T14:38:16.690Z,26.20
2019-01-25T14:40:45.863Z,27.47
2019-01-25T14:43:15.858Z,27.63
2019-01-25T14:45:45.132Z,25.77
2019-01-25T14:48:14.395Z,25.50
2019-01-25T14:50:43.549Z,25.03
2019-01-25T14:53:12.797Z,24.67
2019-01-25T14:55:41.997Z,25.20
2019-01-25T14:58:11.360Z,25.17
2019-01-25T15:00:40.611Z,22.83
2019-01-25T15:03:09.884Z,26.17
2019-01-25T15:05:39.220Z,25.87
2019-01-25T15:08:08.437Z,25.17
2019-01-25T15:10:37.579Z,24.43
2019-01-25T15:13:08.016Z,23.60
2019-01-25T15:15:37.258Z,24.17
2019-01-25T15:18:06.750Z,21.90
2019-01-25T15:20:35.891Z,22.10
2019-01-25T15:23:05.311Z,21.70
2019-01-25T15:25:34.683Z,22.10
2019-01-25T15:28:04.319Z,22.33
2019-01-25T15:30:34.019Z,23.03
2019-01-25T15:33:03.219Z,21.70
2019-01-25T15:35:32.489Z,23.50
2019-01-25T15:38:01.683Z,23.40
2019-01-25T15:40:31.236Z,23.33
2019-01-25T15:43:00.517Z,25.00
2019-01-25T15:45:30.148Z,24.60
2019-01-25T15:47:59.442Z,24.80
2019-01-25T15:50:30.936Z,25.57
2019-01-25T15:53:00.287Z,26.50
2019-01-25T15:55:29.772Z,28.43
2019-01-25T15:57:59.018Z,29.27
2019-01-25T16:00:29.943Z,28.27
2019-01-25T16:02:59.273Z,29.07
2019-01-25T16:05:28.630Z,28.77
2019-01-25T16:07:58.324Z,27.87
2019-01-25T16:10:27.636Z,28.47
2019-01-25T16:12:56.977Z,30.17
2019-01-25T16:15:30.948Z,28.63
2019-01-25T16:18:00.156Z,29.40
2019-01-25T16:20:29.317Z,28.93
2019-01-25T16:22:58.586Z,30.87
2019-01-25T16:25:32.657Z,28.17
2019-01-25T16:28:01.990Z,27.43
2019-01-25T16:30:36.543Z,25.97
2019-01-25T16:33:06.113Z,27.83
2019-01-25T16:35:35.318Z,25.83
2019-01-25T16:38:05.302Z,26.97
2019-01-25T16:40:34.637Z,26.80
2019-01-25T16:43:04.492Z,26.17
2019-01-25T16:45:36.680Z,27.03
2019-01-25T16:48:06.341Z,26.37
2019-01-25T16:50:36.098Z,24.67
2019-01-25T16:53:06.552Z,25.50
2019-01-25T16:55:36.006Z,26.00
2019-01-25T16:58:05.568Z,26.00
2019-01-25T17:00:37.261Z,26.73
2019-01-25T17:03:06.710Z,27.77
2019-01-25T17:05:35.955Z,27.00
2019-01-25T17:08:06.434Z,26.93
2019-01-25T17:10:36.062Z,25.57
2019-01-25T17:13:05.843Z,27.17
2019-01-25T17:15:35.506Z,26.97
2019-01-25T17:18:05.746Z,26.47
2019-01-25T17:20:38.026Z,26.80
2019-01-25T17:23:07.283Z,25.97
2019-01-25T17:25:36.536Z,26.77
2019-01-25T17:28:07.583Z,25.33
2019-01-25T17:30:37.515Z,26.40
2019-01-25T17:33:06.868Z,25.53
2019-01-25T17:35:36.120Z,26.00
2019-01-25T17:38:06.484Z,26.73
2019-01-25T17:40:46.153Z,28.33
2019-01-25T17:43:09.591Z,24.90
2019-01-25T17:45:38.839Z,25.60
2019-01-25T17:48:08.388Z,24.70
2019-01-25T17:50:37.751Z,49.40
2019-01-25T17:53:07.048Z,26.60
2019-01-25T17:55:36.293Z,24.53
2019-01-25T17:58:08.276Z,25.90
2019-01-25T18:00:52.824Z,25.17
2019-01-25T18:03:22.084Z,23.73
2019-01-25T18:05:51.456Z,23.30
2019-01-25T18:08:20.721Z,23.23
2019-01-25T18:10:50.152Z,24.50
2019-01-25T18:13:19.438Z,23.20
2019-01-25T18:15:48.767Z,23.23
2019-01-25T18:18:18.112Z,23.27
2019-01-25T18:20:47.317Z,24.70
2019-01-25T18:23:16.549Z,24.30
2019-01-25T18:25:48.662Z,23.60
2019-01-25T18:28:22.034Z,24.43
2019-01-25T18:30:57.865Z,23.03
2019-01-25T18:33:27.335Z,24.90
2019-01-25T18:35:57.796Z,24.53
2019-01-25T18:38:27.100Z,24.20
2019-01-25T18:40:56.436Z,26.07
2019-01-25T18:43:25.725Z,23.87
2019-01-25T18:45:54.872Z,25.03
2019-01-25T18:48:24.118Z,24.70
2019-01-25T18:50:53.437Z,25.17
2019-01-25T18:53:22.654Z,22.53
2019-01-25T18:55:51.848Z,22.57
2019-01-25T18:58:21.048Z,25.70
2019-01-25T19:00:50.308Z,24.80
2019-01-25T19:03:19.622Z,23.37
2019-01-25T19:05:48.934Z,22.77
2019-01-25T19:08:18.271Z,23.70
2019-01-25T19:10:49.574Z,25.37
2019-01-25T19:13:18.894Z,25.17
2019-01-25T19:15:48.206Z,25.60
2019-01-25T19:18:17.598Z,23.67
2019-01-25T19:20:46.901Z,23.43
2019-01-25T19:23:16.247Z,25.10
2019-01-25T19:25:45.730Z,22.83
2019-01-25T19:28:15.122Z,22.73
2019-01-25T19:30:45.491Z,23.57
2019-01-25T19:33:14.904Z,23.67
2019-01-25T19:35:44.503Z,21.77
2019-01-25T19:38:16.180Z,24.43
2019-01-25T19:40:45.485Z,24.00
2019-01-25T19:43:14.812Z,22.17
2019-01-25T19:45:44.195Z,22.20
2019-01-25T19:48:16.500Z,21.47
2019-01-25T19:50:45.803Z,20.13
2019-01-25T19:53:15.125Z,21.90
2019-01-25T19:55:44.518Z,21.90
2019-01-25T19:58:16.202Z,22.57
2019-01-25T20:00:45.577Z,20.63
2019-01-25T20:03:14.901Z,20.53
2019-01-25T20:05:44.372Z,22.30
2019-01-25T20:08:13.815Z,20.90
2019-01-25T20:10:43.201Z,20.37
2019-01-25T20:13:13.207Z,20.87
2019-01-25T20:15:42.562Z,34.43
2019-01-25T20:18:11.912Z,22.00
2019-01-25T20:20:41.594Z,25.20
2019-01-25T20:23:14.288Z,20.37
2019-01-25T20:25:45.965Z,18.07
2019-01-25T20:28:15.278Z,20.60
2019-01-25T20:30:49.629Z,32.40
2019-01-25T20:33:15.664Z,18.63
2019-01-25T20:35:59.173Z,25.87
2019-01-25T20:38:28.583Z,19.60
2019-01-25T20:40:57.785Z,18.70
2019-01-25T20:43:27.184Z,38.13
2019-01-25T20:45:56.428Z,24.97
2019-01-25T20:48:25.787Z,19.57
2019-01-25T20:50:55.131Z,17.23
2019-01-25T20:53:24.516Z,18.73
2019-01-25T20:55:53.816Z,14.87
2019-01-25T20:58:23.240Z,14.57
2019-01-25T21:00:52.698Z,24.30
2019-01-25T21:03:22.109Z,14.33
2019-01-25T21:05:51.504Z,14.43
2019-01-25T21:08:20.772Z,14.47
2019-01-25T21:10:50.070Z,15.90
2019-01-25T21:13:19.580Z,14.13
2019-01-25T21:15:49.091Z,16.13
2019-01-25T21:18:18.528Z,16.07
2019-01-25T21:20:48.244Z,15.47
2019-01-25T21:23:17.747Z,14.83
2019-01-25T21:25:47.137Z,14.67
2019-01-25T21:28:16.485Z,13.93
2019-01-25T21:30:45.756Z,14.27
2019-01-25T21:33:15.040Z,14.67
2019-01-25T21:35:44.716Z,17.07
2019-01-25T21:38:13.969Z,14.07
2019-01-25T21:40:43.306Z,13.80
2019-01-25T21:43:12.669Z,13.57
2019-01-25T21:45:43.190Z,13.60
2019-01-25T21:48:15.388Z,13.90
2019-01-25T21:50:45.520Z,15.40
2019-01-25T21:53:14.847Z,13.77
2019-01-25T21:55:44.388Z,14.13
2019-01-25T21:58:13.721Z,14.47
2019-01-25T22:00:43.065Z,15.00
2019-01-25T22:03:12.875Z,14.70
2019-01-25T22:05:42.228Z,14.63
2019-01-25T22:08:11.839Z,13.43
2019-01-25T22:10:46.709Z,12.90
2019-01-25T22:13:15.919Z,14.03
2019-01-25T22:15:52.834Z,13.40
2019-01-25T22:18:22.125Z,13.13
2019-01-25T22:20:51.396Z,14.30
2019-01-25T22:23:20.656Z,13.43
2019-01-25T22:25:49.933Z,14.00
2019-01-25T22:28:19.223Z,13.00
2019-01-25T22:30:48.455Z,12.27
2019-01-25T22:33:17.666Z,13.03
2019-01-25T22:35:46.921Z,13.00
2019-01-25T22:38:16.211Z,12.83
2019-01-25T22:40:45.471Z,12.17
2019-01-25T22:43:14.723Z,13.87
2019-01-25T22:45:44.015Z,13.03
2019-01-25T22:48:13.316Z,13.07
2019-01-25T22:50:42.561Z,13.47
2019-01-25T22:53:11.862Z,12.53
2019-01-25T22:55:41.214Z,13.20
2019-01-25T22:58:10.538Z,12.97
2019-01-25T23:01:29.805Z,13.30
2019-01-25T23:04:46.085Z,13.10
2019-01-25T23:07:26.988Z,13.93
2019-01-25T23:10:01.462Z,14.03
2019-01-25T23:12:30.746Z,13.27
2019-01-25T23:15:00.257Z,14.37
2019-01-25T23:17:29.529Z,13.90
2019-01-25T23:19:58.829Z,13.83
2019-01-25T23:22:28.077Z,14.73
2019-01-25T23:24:57.330Z,13.87
2019-01-25T23:27:26.498Z,12.87
2019-01-25T23:29:55.734Z,14.53
2019-01-25T23:32:24.940Z,13.63
2019-01-25T23:34:54.235Z,13.73
2019-01-25T23:37:23.484Z,13.83
2019-01-25T23:39:52.708Z,14.90
2019-01-25T23:42:21.991Z,12.57
2019-01-25T23:44:51.259Z,13.63
2019-01-25T23:47:20.490Z,13.97
2019-01-25T23:49:49.757Z,13.63
2019-01-25T23:52:19.114Z,14.97
2019-01-25T23:54:48.370Z,14.30
2019-01-25T23:57:17.661Z,14.90
2019-01-25T23:59:46.854Z,14.43
